Terminal Aerodrome Forecast
Issued by NWS

Home | Current Version | Previous Version | Text Only | Print | Product List | Glossary On
Versions: 1 2 3 4 5 6 7 8 9 10 11 12 13 14 15 16 17 18 19 20 21 22 23 24 25 26
000
FTAK31 PANC 230547
TAFAEN
TAF
PAEN 230547Z 2306/2406 01005KT 6SM -SN OVC045
      TEMPO 2306/2310 3SM -SN OVC030
     FM231000 02007KT 3SM -SN OVC025
     FM231800 03008KT P6SM SCT025 OVC035=

USA.gov is the U.S. government's official web portal to all federal, state and local government web resources and services.